Time;durP1;ratioP1;P1;durP2;ratioP2;P2;SDS_P1;SDS_P2;PMS_P1;PMS_P2;Temp;Humidity;BMP_temperature;BMP_pressure;BME280_temperature;BME280_humidity;BME280_pressure;Samples;Min_cycle;Max_cycle;Signal;HPM_P1;HPM_P2
2023/08/03 00:00:59;;;;;;;2.83;1.63;;;;;;;19.63;89.25;94618.03;5089667;28;20842;-83
2023/08/03 00:03:26;;;;;;;2.50;1.40;;;;;;;19.69;88.89;94616.22;5105261;28;20227;-83
2023/08/03 00:05:52;;;;;;;2.03;1.48;;;;;;;19.66;88.03;94600.03;5110510;28;20729;-83
2023/08/03 00:08:19;;;;;;;2.38;1.55;;;;;;;19.64;90.26;94641.28;5110025;28;20199;-83
2023/08/03 00:10:45;;;;;;;4.13;1.75;;;;;;;19.67;89.06;94619.09;5109817;28;20223;-83
2023/08/03 00:13:11;;;;;;;3.50;1.60;;;;;;;19.71;88.23;94607.09;5105943;28;20658;-83
2023/08/03 00:15:39;;;;;;;2.78;1.73;;;;;;;19.64;88.51;94604.72;5102457;28;20293;-81
2023/08/03 00:18:06;;;;;;;2.72;1.75;;;;;;;19.68;89.80;94620.66;5107857;28;20195;-81
2023/08/03 00:20:32;;;;;;;2.70;1.85;;;;;;;19.73;88.72;94602.41;5109649;28;20630;-82
2023/08/03 00:22:58;;;;;;;4.55;1.60;;;;;;;19.75;87.96;94586.47;5108022;28;20219;-83
2023/08/03 00:25:25;;;;;;;3.22;1.60;;;;;;;19.69;88.80;94595.34;5089458;28;20204;-83
2023/08/03 00:27:52;;;;;;;2.08;1.60;;;;;;;19.72;88.58;94597.44;5089909;28;20287;-82
2023/08/03 00:30:18;;;;;;;1.80;1.60;;;;;;;19.79;89.03;94616.28;5090397;28;20206;-83
2023/08/03 00:32:46;;;;;;;1.90;1.70;;;;;;;19.85;88.72;94620.44;5094815;28;20580;-82
2023/08/03 00:35:12;;;;;;;3.15;2.00;;;;;;;19.85;88.26;94623.06;5104711;28;20210;-83
2023/08/03 00:37:39;;;;;;;1.73;1.63;;;;;;;19.79;88.29;94614.44;5109133;28;20199;-83
2023/08/03 00:40:07;;;;;;;3.90;1.88;;;;;;;19.80;88.33;94616.03;5109654;28;20234;-81
2023/08/03 00:42:34;;;;;;;3.03;1.45;;;;;;;19.80;88.32;94613.41;5107299;28;20219;-83
2023/08/03 00:45:00;;;;;;;3.30;1.70;;;;;;;19.85;88.01;94602.16;5102418;28;20608;-83
2023/08/03 00:47:27;;;;;;;2.72;1.92;;;;;;;19.85;88.59;94602.16;5115405;28;20876;-83
2023/08/03 00:49:54;;;;;;;3.95;1.98;;;;;;;19.82;88.38;94606.06;5117190;28;20383;-82
2023/08/03 00:52:23;;;;;;;3.47;1.65;;;;;;;19.84;88.45;94609.22;5105379;28;20661;-83
2023/08/03 00:54:49;;;;;;;2.78;1.60;;;;;;;19.86;88.88;94630.66;5096669;28;20287;-82
2023/08/03 00:57:16;;;;;;;4.78;2.08;;;;;;;19.84;89.22;94619.66;5093322;28;20211;-82
2023/08/03 00:59:43;;;;;;;3.28;1.60;;;;;;;19.83;89.21;94615.47;5093561;28;20203;-83
2023/08/03 01:02:10;;;;;;;2.30;1.58;;;;;;;19.76;89.65;94622.78;5092795;28;20761;-83
2023/08/03 01:04:36;;;;;;;5.30;1.90;;;;;;;19.67;89.88;94632.16;5097938;28;20200;-83
2023/08/03 01:07:05;;;;;;;4.60;2.00;;;;;;;19.69;90.45;94627.47;5111368;28;20244;-82
2023/08/03 01:09:31;;;;;;;3.58;2.03;;;;;;;19.80;90.74;94623.84;5107662;28;20618;-83
2023/08/03 01:11:58;;;;;;;4.70;1.80;;;;;;;19.71;90.53;94616.75;5097629;28;20211;-81
2023/08/03 01:14:24;;;;;;;3.78;1.63;;;;;;;19.70;91.83;94644.72;5102606;28;20196;-81
2023/08/03 01:16:52;;;;;;;4.03;2.00;;;;;;;19.73;92.46;94662.47;5095713;28;20251;-82
2023/08/03 01:19:18;;;;;;;5.65;2.20;;;;;;;19.64;91.87;94651.72;5092404;28;20822;-83
2023/08/03 01:21:47;;;;;;;4.45;1.90;;;;;;;19.66;92.13;94664.53;5092154;28;20219;-81
2023/08/03 01:24:15;;;;;;;3.33;1.90;;;;;;;19.66;92.19;94660.09;5109130;28;20210;-81
2023/08/03 01:26:42;;;;;;;2.55;1.90;;;;;;;19.69;92.28;94660.63;5112881;27;20735;-82
2023/08/03 01:29:08;;;;;;;2.47;1.70;;;;;;;19.65;92.68;94660.34;5112668;27;20729;-83
2023/08/03 01:31:35;;;;;;;3.85;2.03;;;;;;;19.62;93.58;94669.50;5112579;28;20219;-83
2023/08/03 01:34:02;;;;;;;2.10;1.55;;;;;;;19.48;92.68;94660.50;5111485;28;20219;-83
2023/08/03 01:36:29;;;;;;;5.68;2.20;;;;;;;19.47;92.39;94648.50;5112989;28;20203;-83
2023/08/03 01:38:55;;;;;;;3.28;1.77;;;;;;;19.45;92.94;94660.22;5110172;28;20203;-83
2023/08/03 01:41:23;;;;;;;5.43;2.10;;;;;;;19.40;93.16;94647.97;5102828;28;20465;-83
2023/08/03 01:44:19;;;;;;;8.57;1.80;;;;;;;19.37;93.75;94660.72;5096186;28;20219;-83
2023/08/03 01:46:45;;;;;;;6.07;2.13;;;;;;;19.36;94.03;94656.53;5107967;28;20203;-82
2023/08/03 01:49:12;;;;;;;3.42;2.03;;;;;;;19.42;92.69;94650.31;5114326;28;20603;-81
2023/08/03 01:51:40;;;;;;;3.85;1.70;;;;;;;19.37;91.51;94619.75;5111070;28;20226;-81
2023/08/03 01:54:06;;;;;;;3.55;1.90;;;;;;;19.27;90.23;94586.53;5097106;28;20205;-81
2023/08/03 01:56:34;;;;;;;4.35;2.08;;;;;;;19.36;89.90;94589.47;5111195;28;20222;-81
2023/08/03 01:59:00;;;;;;;4.25;1.98;;;;;;;19.36;89.91;94599.13;5093257;28;20197;-81
2023/08/03 02:01:27;;;;;;;3.40;1.88;;;;;;;19.31;89.09;94584.22;5090635;28;20224;-82
2023/08/03 02:03:53;;;;;;;5.40;2.10;;;;;;;19.36;89.66;94599.13;5100798;28;20219;-82
2023/08/03 02:06:19;;;;;;;5.47;1.60;;;;;;;19.42;89.74;94609.34;5112194;28;20225;-83
2023/08/03 02:08:46;;;;;;;5.20;2.08;;;;;;;19.42;89.98;94613.78;5105229;28;20610;-83
2023/08/03 02:11:12;;;;;;;3.95;1.67;;;;;;;19.44;90.07;94622.91;5110611;28;20276;-83
2023/08/03 02:13:40;;;;;;;4.10;1.70;;;;;;;19.42;90.47;94635.44;5101985;28;20713;-83
2023/08/03 02:16:09;;;;;;;4.00;1.83;;;;;;;19.41;90.22;94623.44;5091943;28;20215;-83
2023/08/03 02:18:35;;;;;;;5.55;1.95;;;;;;;19.47;90.40;94613.78;5092240;28;20219;-83
2023/08/03 02:21:02;;;;;;;4.70;1.88;;;;;;;19.43;88.63;94586.63;5092341;28;20220;-83
2023/08/03 02:23:28;;;;;;;5.50;2.00;;;;;;;19.43;88.78;94595.25;5094880;28;20211;-83
2023/08/03 02:25:54;;;;;;;4.05;1.60;;;;;;;19.47;88.55;94600.72;5112262;28;20615;-83
2023/08/03 02:28:21;;;;;;;5.28;1.88;;;;;;;19.32;87.71;94588.41;5110420;28;20207;-83
2023/08/03 02:30:48;;;;;;;5.95;2.05;;;;;;;19.35;87.93;94581.88;5112259;28;20219;-83
2023/08/03 02:33:15;;;;;;;3.47;2.20;;;;;;;19.43;87.50;94568.34;5106146;28;20227;-83
2023/08/03 02:35:41;;;;;;;5.75;1.88;;;;;;;19.52;87.57;94569.44;5091169;28;20200;-83
2023/08/03 02:38:08;;;;;;;4.30;1.85;;;;;;;19.57;86.65;94570.25;5090693;28;20250;-83
2023/08/03 02:40:34;;;;;;;4.32;2.08;;;;;;;19.60;86.91;94579.41;5090867;28;20223;-83
2023/08/03 02:43:01;;;;;;;4.03;1.75;;;;;;;19.65;86.96;94579.41;5095643;28;20581;-83
2023/08/03 02:45:27;;;;;;;5.45;2.10;;;;;;;19.65;86.63;94558.50;5110530;28;20191;-82
2023/08/03 02:47:55;;;;;;;5.43;2.25;;;;;;;19.61;85.98;94557.47;5110640;28;20681;-83
2023/08/03 02:50:21;;;;;;;4.30;2.00;;;;;;;19.52;86.53;94575.44;5115373;28;20346;-83
2023/08/03 02:52:49;;;;;;;6.00;2.05;;;;;;;19.52;86.21;94574.66;5110399;28;20191;-83
2023/08/03 02:55:16;;;;;;;2.95;1.77;;;;;;;19.55;85.97;94563.72;5091222;28;20204;-83
2023/08/03 02:57:42;;;;;;;3.33;1.83;;;;;;;19.51;85.64;94565.25;5110700;28;20209;-83
2023/08/03 03:00:10;;;;;;;6.38;2.15;;;;;;;19.30;85.68;94567.78;5109975;28;20199;-83
2023/08/03 03:02:37;;;;;;;5.18;2.10;;;;;;;19.41;85.89;94573.03;5111440;28;20699;-83
2023/08/03 03:05:05;;;;;;;3.60;1.88;;;;;;;19.32;84.32;94554.47;5110767;28;20238;-83
2023/08/03 03:07:32;;;;;;;2.55;1.52;;;;;;;19.22;81.25;94486.59;5093960;27;20200;-83
2023/08/03 03:09:58;;;;;;;5.60;1.92;;;;;;;19.24;80.97;94479.28;5092252;28;20200;-83
2023/08/03 03:12:25;;;;;;;6.60;1.90;;;;;;;19.26;80.80;94479.78;5091313;28;20223;-83
2023/08/03 03:14:51;;;;;;;4.65;1.85;;;;;;;19.35;80.43;94460.00;5091784;28;20225;-83
2023/08/03 03:17:18;;;;;;;5.60;2.05;;;;;;;19.27;79.62;94455.25;5109100;28;20257;-83
2023/08/03 03:19:44;;;;;;;8.95;1.90;;;;;;;19.31;80.09;94459.72;5106498;28;20231;-83
2023/08/03 03:22:12;;;;;;;4.85;2.22;;;;;;;19.39;80.66;94470.72;5090414;28;20223;-83
2023/08/03 03:24:38;;;;;;;4.43;1.90;;;;;;;19.37;80.57;94459.72;5090791;28;20219;-83
2023/08/03 03:27:06;;;;;;;4.65;2.08;;;;;;;19.28;79.61;94446.41;5092158;28;20200;-83
2023/08/03 03:29:32;;;;;;;4.57;1.70;;;;;;;19.29;80.39;94461.00;5090778;28;20200;-83
2023/08/03 03:31:58;;;;;;;5.50;2.15;;;;;;;19.27;80.46;94463.88;5100385;28;20293;-83
2023/08/03 03:34:25;;;;;;;4.03;1.90;;;;;;;19.25;80.57;94465.97;5109968;28;20206;-83
2023/08/03 03:36:51;;;;;;;6.43;2.28;;;;;;;19.24;80.69;94471.47;5092123;28;20692;-83
2023/08/03 03:39:19;;;;;;;2.42;1.70;;;;;;;19.23;80.75;94475.13;5096271;28;20203;-83
2023/08/03 03:41:46;;;;;;;5.43;2.05;;;;;;;19.21;80.49;94471.97;5104737;28;20219;-83
2023/08/03 03:44:12;;;;;;;4.70;1.70;;;;;;;19.21;80.14;94480.59;5092610;28;20261;-83
2023/08/03 03:46:38;;;;;;;4.13;1.98;;;;;;;19.25;80.00;94475.63;5104613;28;20196;-83
2023/08/03 03:49:05;;;;;;;5.78;1.95;;;;;;;19.17;80.41;94483.97;5107396;28;20199;-83
2023/08/03 03:51:31;;;;;;;3.65;2.13;;;;;;;19.27;80.00;94478.75;5112243;28;20250;-82
2023/08/03 03:53:58;;;;;;;3.63;1.90;;;;;;;19.26;79.68;94466.75;5110618;28;20560;-83
2023/08/03 03:56:25;;;;;;;3.35;1.85;;;;;;;19.24;79.00;94468.84;5109016;28;20195;-83
2023/08/03 03:58:52;;;;;;;3.08;1.70;;;;;;;19.23;78.62;94455.03;5090888;28;20196;-83
2023/08/03 04:01:18;;;;;;;5.45;1.85;;;;;;;19.22;79.30;94455.28;5107458;28;20215;-83
2023/08/03 04:03:45;;;;;;;4.38;1.83;;;;;;;19.24;78.82;94459.16;5108057;28;20224;-83
2023/08/03 04:06:11;;;;;;;3.95;1.67;;;;;;;19.30;78.38;94446.94;5110881;28;20199;-83
2023/08/03 04:08:37;;;;;;;3.70;1.83;;;;;;;19.32;77.89;94439.63;5094746;28;20677;-83
2023/08/03 04:11:04;;;;;;;5.60;2.40;;;;;;;19.28;77.45;94431.53;5093983;28;20265;-83
2023/08/03 04:13:32;;;;;;;6.13;2.08;;;;;;;19.30;77.10;94428.66;5094483;28;20201;-83
2023/08/03 04:15:58;;;;;;;5.25;1.85;;;;;;;19.34;76.77;94427.09;5096861;28;20215;-83
2023/08/03 04:18:24;;;;;;;5.03;2.35;;;;;;;19.35;76.03;94412.22;5104928;27;20241;-83
2023/08/03 04:21:00;;;;;;;4.30;1.80;;;;;;;19.33;75.43;94415.09;5108419;28;20658;-83
2023/08/03 04:23:29;;;;;;;4.75;1.92;;;;;;;19.34;75.50;94401.00;5115647;28;20260;-83
2023/08/03 04:26:07;;;;;;;5.22;1.67;;;;;;;19.37;74.55;94376.22;5117895;28;20204;-82
2023/08/03 04:28:44;;;;;;;3.60;2.10;;;;;;;19.41;74.24;94378.03;5118006;28;20195;-83
2023/08/03 04:31:10;;;;;;;5.97;2.05;;;;;;;19.41;73.53;94359.78;5117559;28;20219;-83
2023/08/03 04:33:39;;;;;;;3.00;1.80;;;;;;;19.24;73.47;94365.22;5117760;28;20195;-83
2023/08/03 04:36:05;;;;;;;7.45;2.17;;;;;;;19.20;74.10;94384.28;5115911;28;20196;-81
2023/08/03 04:38:32;;;;;;;6.78;2.42;;;;;;;19.27;72.81;94358.69;5116456;28;20203;-84
2023/08/03 04:41:00;;;;;;;5.63;1.90;;;;;;;19.32;72.71;94359.50;5103178;28;20220;-82
2023/08/03 04:43:26;;;;;;;3.83;2.03;;;;;;;19.27;71.48;94335.22;5095975;28;20318;-83
2023/08/03 04:45:54;;;;;;;4.20;2.10;;;;;;;19.32;71.54;94332.59;5110097;28;20215;-82
2023/08/03 04:48:21;;;;;;;5.07;2.15;;;;;;;19.36;71.66;94335.50;5115886;28;20211;-81
2023/08/03 04:50:47;;;;;;;3.42;1.85;;;;;;;19.36;70.36;94306.78;5116088;28;20223;-83
2023/08/03 04:53:14;;;;;;;6.90;2.35;;;;;;;19.43;70.11;94308.09;5112330;28;20797;-80
2023/08/03 04:55:43;;;;;;;5.05;1.83;;;;;;;19.50;69.76;94294.78;5113326;28;20217;-81
2023/08/03 04:58:10;;;;;;;9.07;2.25;;;;;;;19.50;69.43;94287.72;5115160;27;20421;-82
2023/08/03 05:00:36;;;;;;;4.30;1.80;;;;;;;19.59;68.91;94278.31;5113109;28;20220;-82
2023/08/03 05:03:04;;;;;;;6.50;2.15;;;;;;;19.53;68.40;94252.47;5114176;28;20205;-81
2023/08/03 05:05:30;;;;;;;5.50;2.08;;;;;;;19.49;68.65;94256.63;5114076;28;20196;-83
2023/08/03 05:07:57;;;;;;;6.45;1.95;;;;;;;19.48;68.11;94255.06;5113428;28;20210;-83
2023/08/03 05:10:23;;;;;;;4.25;1.58;;;;;;;19.50;68.00;94245.97;5114201;28;20203;-83
2023/08/03 05:12:49;;;;;;;5.53;1.88;;;;;;;19.45;67.23;94229.47;5105729;28;20212;-83
2023/08/03 05:15:16;;;;;;;5.88;1.90;;;;;;;19.47;67.68;94224.78;5100434;28;20803;-83
2023/08/03 05:17:42;;;;;;;4.45;2.28;;;;;;;19.57;67.62;94225.59;5117518;28;20560;-83
2023/08/03 05:20:12;;;;;;;3.92;1.80;;;;;;;19.62;67.33;94222.97;5117245;28;20203;-83
2023/08/03 05:22:39;;;;;;;6.43;2.15;;;;;;;19.73;67.32;94230.75;5116292;28;20235;-83
2023/08/03 05:25:06;;;;;;;6.13;1.95;;;;;;;19.71;66.49;94204.91;5114453;28;20219;-83
2023/08/03 05:27:32;;;;;;;3.30;1.85;;;;;;;19.73;66.24;94178.53;5115302;27;20791;-82
2023/08/03 05:29:59;;;;;;;4.30;1.73;;;;;;;19.75;65.67;94179.03;5112970;28;20202;-81
2023/08/03 05:32:26;;;;;;;6.50;1.98;;;;;;;19.80;66.28;94185.03;5114256;28;20220;-83
2023/08/03 05:34:52;;;;;;;5.97;2.50;;;;;;;19.87;66.10;94193.34;5114408;28;20195;-83
2023/08/03 05:37:20;;;;;;;3.38;1.58;;;;;;;19.78;65.03;94153.19;5113377;28;20203;-83
2023/08/03 05:39:46;;;;;;;4.68;2.00;;;;;;;19.63;64.49;94125.28;5113793;28;20202;-83
2023/08/03 05:42:14;;;;;;;4.88;3.55;;;;;;;19.72;64.26;94120.28;5112305;28;20223;-81
2023/08/03 05:44:40;;;;;;;5.72;1.85;;;;;;;19.78;64.29;94127.06;5112072;28;20283;-81
2023/08/03 05:47:10;;;;;;;4.13;1.60;;;;;;;19.82;64.17;94120.22;5114351;28;20195;-84
2023/08/03 05:49:37;;;;;;;6.15;2.20;;;;;;;19.73;62.26;94058.41;5114109;28;20203;-83
2023/08/03 05:52:06;;;;;;;4.05;1.55;;;;;;;19.77;62.69;94059.44;5112740;28;20219;-83
2023/08/03 05:54:34;;;;;;;3.78;1.63;;;;;;;19.79;62.64;94059.94;5114751;28;20195;-83
2023/08/03 05:57:00;;;;;;;6.40;2.08;;;;;;;19.74;62.19;94046.91;5112399;28;20211;-81
2023/08/03 05:59:27;;;;;;;3.55;1.45;;;;;;;19.80;61.73;94035.38;5114019;28;20210;-83
2023/08/03 06:01:53;;;;;;;3.55;1.85;;;;;;;19.93;61.74;94043.38;5114435;28;20234;-83
2023/08/03 06:04:20;;;;;;;4.35;1.67;;;;;;;20.00;62.05;94061.38;5112999;28;20226;-83
2023/08/03 06:06:46;;;;;;;4.70;1.92;;;;;;;19.94;61.25;94026.66;5113839;28;20684;-81
2023/08/03 06:09:14;;;;;;;7.28;1.63;;;;;;;19.89;60.20;93990.13;5113370;28;20244;-82
2023/08/03 06:11:42;;;;;;;4.30;1.52;;;;;;;19.93;60.36;94000.81;5113301;28;20300;-83
2023/08/03 06:14:12;;;;;;;4.30;1.75;;;;;;;19.99;59.72;93989.28;5111684;28;20207;-83
2023/08/03 06:16:38;;;;;;;6.32;1.80;;;;;;;20.12;60.08;93998.31;5113156;28;20207;-81
2023/08/03 06:19:06;;;;;;;4.55;2.58;;;;;;;20.15;59.71;93977.63;5113360;28;20210;-84
2023/08/03 06:21:32;;;;;;;6.28;3.63;;;;;;;20.20;58.97;93943.63;5113106;28;20230;-82
2023/08/03 06:23:59;;;;;;;3.13;1.60;;;;;;;20.21;58.80;93944.38;5113398;28;20219;-82
2023/08/03 06:26:31;;;;;;;4.03;1.55;;;;;;;20.32;59.17;93951.84;5114565;28;20203;-84
2023/08/03 06:29:00;;;;;;;4.47;1.50;;;;;;;20.38;58.75;93947.41;5111572;28;20207;-82
2023/08/03 06:31:31;;;;;;;4.80;2.10;;;;;;;20.43;58.83;93946.53;5113932;28;20595;-83
2023/08/03 06:33:58;;;;;;;5.13;1.60;;;;;;;20.45;58.39;93926.13;5113708;28;20195;-81
2023/08/03 06:36:26;;;;;;;3.78;1.38;;;;;;;20.52;57.30;93882.13;5110401;28;20580;-82
2023/08/03 06:38:52;;;;;;;3.78;1.48;;;;;;;20.59;57.53;93893.78;5092263;28;20226;-82
2023/08/03 06:41:19;;;;;;;3.22;1.50;;;;;;;20.59;56.40;93838.13;5091761;28;20568;-83
2023/08/03 06:43:46;;;;;;;3.85;1.10;;;;;;;20.59;55.82;93820.56;5093246;28;20224;-83
2023/08/03 06:46:13;;;;;;;4.10;1.95;;;;;;;20.61;55.63;93805.38;5112194;28;20290;-83
2023/08/03 06:48:40;;;;;;;3.08;1.35;;;;;;;20.62;54.33;93746.78;5113356;28;20203;-83
2023/08/03 06:51:06;;;;;;;3.78;1.15;;;;;;;20.67;54.54;93761.66;5112508;28;20215;-81
2023/08/03 06:53:33;;;;;;;3.78;1.20;;;;;;;20.69;53.95;93742.00;5113366;28;20606;-83
2023/08/03 06:56:00;;;;;;;2.35;1.17;;;;;;;20.74;53.92;93746.38;5113587;28;20211;-83
2023/08/03 06:58:26;;;;;;;2.78;1.20;;;;;;;20.83;53.93;93756.97;5113798;28;20207;-83
2023/08/03 07:00:52;;;;;;;4.88;2.00;;;;;;;20.79;53.29;93716.75;5113262;28;20215;-82
2023/08/03 07:03:20;;;;;;;5.80;2.42;;;;;;;20.73;53.28;93721.28;5113498;28;20204;-82
2023/08/03 07:05:47;;;;;;;3.85;1.13;;;;;;;20.79;53.19;93716.75;5112499;28;20215;-81
2023/08/03 07:08:13;;;;;;;4.55;0.98;;;;;;;20.74;53.00;93694.06;5119783;27;20226;-82
2023/08/03 07:10:40;;;;;;;2.65;1.20;;;;;;;20.82;52.99;93688.19;5115341;28;20712;-82
2023/08/03 07:13:07;;;;;;;2.78;1.05;;;;;;;20.86;52.23;93685.78;5114386;28;20202;-82
2023/08/03 07:15:34;;;;;;;3.72;1.30;;;;;;;20.97;52.76;93697.63;5114386;28;20595;-82
2023/08/03 07:18:01;;;;;;;2.17;0.90;;;;;;;21.02;52.78;93705.38;5112714;28;20233;-82
2023/08/03 07:20:29;;;;;;;3.78;1.08;;;;;;;21.01;51.97;93648.88;5114678;28;20199;-81
2023/08/03 07:22:57;;;;;;;3.00;1.20;;;;;;;20.94;51.49;93622.34;5114990;28;20199;-82
2023/08/03 07:25:24;;;;;;;1.73;1.00;;;;;;;21.07;51.51;93633.88;5114996;28;20267;-82
2023/08/03 07:27:51;;;;;;;4.45;1.13;;;;;;;21.16;51.43;93640.00;5114802;28;20571;-82
2023/08/03 07:30:17;;;;;;;2.95;0.82;;;;;;;21.16;50.86;93598.13;5114783;28;20727;-82
2023/08/03 07:32:44;;;;;;;2.60;0.98;;;;;;;21.12;51.04;93591.91;5114013;28;20200;-82
2023/08/03 07:35:10;;;;;;;3.38;0.95;;;;;;;21.28;51.73;93641.09;5112622;28;20199;-82
2023/08/03 07:37:38;;;;;;;1.73;1.15;;;;;;;21.38;50.90;93606.84;5101372;28;20200;-82
2023/08/03 07:40:07;;;;;;;6.10;1.15;;;;;;;21.57;50.97;93613.81;5094773;28;20199;-83
2023/08/03 07:42:33;;;;;;;3.38;1.00;;;;;;;21.54;50.15;93589.03;5095154;28;20307;-82
2023/08/03 07:45:01;;;;;;;2.45;1.10;;;;;;;21.56;49.71;93560.69;5104001;28;20219;-82
2023/08/03 07:47:27;;;;;;;2.10;1.00;;;;;;;21.54;49.30;93543.72;5117105;28;20561;-81
2023/08/03 07:49:54;;;;;;;2.00;0.90;;;;;;;21.38;48.83;93522.31;5114777;28;20199;-82
2023/08/03 07:52:21;;;;;;;1.83;0.95;;;;;;;21.52;49.43;93559.75;5115458;28;20215;-83
2023/08/03 07:54:49;;;;;;;2.30;1.02;;;;;;;21.65;49.66;93587.72;5115931;28;20286;-81
2023/08/03 07:57:16;;;;;;;1.77;1.00;;;;;;;21.63;48.36;93513.16;5115033;28;20226;-81
2023/08/03 07:59:42;;;;;;;1.50;0.90;;;;;;;21.67;48.07;93485.28;5115109;28;20199;-82
2023/08/03 08:02:09;;;;;;;2.05;1.15;;;;;;;21.75;47.78;93491.66;5115774;28;20219;-82
2023/08/03 08:04:35;;;;;;;2.38;1.00;;;;;;;22.06;48.93;93571.16;5116085;28;20639;-80
2023/08/03 08:07:01;;;;;;;1.55;1.00;;;;;;;22.30;48.16;93534.16;5113788;28;20208;-80
2023/08/03 08:09:28;;;;;;;4.60;1.35;;;;;;;22.45;48.29;93559.25;5116164;28;20598;-81
2023/08/03 08:11:55;;;;;;;3.05;1.10;;;;;;;22.39;47.31;93504.28;5115670;28;20230;-80
2023/08/03 08:14:22;;;;;;;2.67;1.00;;;;;;;22.26;47.28;93478.16;5114455;28;20192;-82
2023/08/03 08:16:49;;;;;;;1.70;1.00;;;;;;;22.45;47.69;93523.31;5116504;28;20652;-82
2023/08/03 08:19:15;;;;;;;1.40;0.90;;;;;;;22.59;47.89;93552.84;5115917;28;20231;-82
2023/08/03 08:21:41;;;;;;;2.42;1.55;;;;;;;22.66;47.40;93507.81;5111905;28;20219;-81
2023/08/03 08:24:08;;;;;;;2.05;1.67;;;;;;;22.74;46.86;93465.88;5113768;28;20207;-82
2023/08/03 08:26:34;;;;;;;1.73;1.08;;;;;;;22.74;47.15;93504.44;5113720;28;20209;-82
2023/08/03 08:29:02;;;;;;;1.92;1.10;;;;;;;22.74;46.42;93471.13;5112860;28;20199;-82
2023/08/03 08:31:29;;;;;;;3.08;1.20;;;;;;;22.79;46.15;93472.88;5112848;28;20226;-82
2023/08/03 08:33:55;;;;;;;3.45;1.10;;;;;;;22.94;46.54;93461.16;5112664;28;20199;-82
2023/08/03 08:36:21;;;;;;;3.17;1.35;;;;;;;22.88;45.87;93504.38;5112366;28;20235;-81
2023/08/03 08:38:48;;;;;;;2.45;1.08;;;;;;;22.85;46.13;93455.91;5109157;28;20196;-80
2023/08/03 08:41:14;;;;;;;3.75;1.10;;;;;;;23.09;46.15;93455.50;5112518;28;20215;-80
2023/08/03 08:43:41;;;;;;;2.92;1.13;;;;;;;23.30;46.24;93461.69;5112145;28;20196;-82
2023/08/03 08:46:09;;;;;;;6.03;1.25;;;;;;;23.50;45.82;93454.28;5111735;28;20215;-82
2023/08/03 08:48:36;;;;;;;1.73;1.00;;;;;;;23.44;45.35;93422.16;5111952;28;20229;-82
2023/08/03 08:51:04;;;;;;;4.07;1.00;;;;;;;23.42;45.26;93422.47;5112013;28;20251;-82
2023/08/03 08:53:31;;;;;;;1.60;1.27;;;;;;;23.67;46.33;93470.09;5110927;28;20244;-82
2023/08/03 08:55:57;;;;;;;2.95;1.10;;;;;;;23.46;45.51;93427.91;5112143;28;20196;-82
2023/08/03 08:58:24;;;;;;;2.15;1.10;;;;;;;23.62;44.95;93400.09;5098166;28;20213;-82
2023/08/03 09:00:51;;;;;;;3.83;1.25;;;;;;;23.80;44.94;93392.19;5092150;28;20257;-82
2023/08/03 09:03:18;;;;;;;4.30;1.20;;;;;;;23.86;43.85;93362.78;5091253;28;20231;-82
2023/08/03 09:05:45;;;;;;;3.10;1.30;;;;;;;24.00;44.39;93378.38;5111244;28;20635;-82
2023/08/03 09:08:13;;;;;;;3.22;1.13;;;;;;;23.85;44.55;93342.88;5116488;28;20683;-82
2023/08/03 09:10:50;;;;;;;1.70;0.90;;;;;;;23.93;44.26;93364.94;5114289;28;20298;-82
2023/08/03 09:13:28;;;;;;;2.05;1.20;;;;;;;24.06;44.12;93343.69;5115924;28;20206;-82
2023/08/03 09:15:55;;;;;;;3.80;1.42;;;;;;;24.13;43.31;93316.94;5115779;27;20612;-82
2023/08/03 09:18:25;;;;;;;3.75;1.70;;;;;;;24.09;42.79;93272.09;5115446;28;20231;-82
2023/08/03 09:20:51;;;;;;;2.28;1.58;;;;;;;24.04;42.85;93274.91;5115087;28;20215;-82
2023/08/03 09:23:28;;;;;;;3.13;1.50;;;;;;;24.17;42.59;93269.75;5113727;28;20203;-82
2023/08/03 09:25:55;;;;;;;1.67;1.20;;;;;;;24.34;42.67;93278.34;5112474;28;20230;-82
2023/08/03 09:28:33;;;;;;;2.92;1.25;;;;;;;24.34;42.52;93278.34;5112036;28;20199;-82
2023/08/03 09:31:00;;;;;;;4.63;1.20;;;;;;;24.37;41.98;93251.41;5116175;28;20793;-82
2023/08/03 09:33:27;;;;;;;3.35;1.35;;;;;;;24.55;41.70;93230.22;5115195;28;20199;-82
2023/08/03 09:36:02;;;;;;;2.17;1.05;;;;;;;24.57;41.61;93220.16;5100744;28;20210;-82
2023/08/03 09:38:29;;;;;;;3.15;1.20;;;;;;;24.50;42.03;93248.84;5108110;28;20195;-82
2023/08/03 09:40:55;;;;;;;2.17;1.10;;;;;;;24.67;42.07;93270.53;5115129;28;20222;-80
2023/08/03 09:43:23;;;;;;;2.20;1.02;;;;;;;24.77;41.44;93217.53;5112448;28;20219;-81
2023/08/03 09:45:52;;;;;;;4.10;1.05;;;;;;;24.97;41.36;93210.72;5115541;28;20310;-82
2023/08/03 09:48:20;;;;;;;2.50;1.13;;;;;;;24.96;40.83;93198.66;5115570;28;20642;-82
2023/08/03 09:50:51;;;;;;;1.40;1.10;;;;;;;24.87;40.22;93166.31;5114530;28;20223;-81
2023/08/03 09:53:21;;;;;;;1.73;1.10;;;;;;;25.06;40.61;93164.00;5115134;28;20195;-81
2023/08/03 09:55:57;;;;;;;2.78;1.20;;;;;;;25.03;40.42;93171.78;5116418;28;20681;-82
2023/08/03 09:58:29;;;;;;;1.92;1.00;;;;;;;25.24;40.41;93193.53;5115543;28;20199;-81
2023/08/03 10:00:59;;;;;;;3.28;1.10;;;;;;;25.26;39.80;93143.94;5113632;28;20710;-80
2023/08/03 10:03:29;;;;;;;2.20;1.15;;;;;;;25.34;40.09;93168.66;5114115;28;20199;-81
2023/08/03 10:06:08;;;;;;;2.85;1.40;;;;;;;25.42;39.53;93144.84;5115071;28;20223;-80
2023/08/03 10:08:40;;;;;;;1.98;1.08;;;;;;;25.60;39.80;93166.47;5113780;28;20579;-81
2023/08/03 10:11:10;;;;;;;1.60;1.05;;;;;;;25.76;39.51;93161.38;5114421;28;20211;-81
2023/08/03 10:13:42;;;;;;;1.42;1.10;;;;;;;25.96;39.42;93136.75;5113492;28;20225;-81
2023/08/03 10:16:09;;;;;;;2.88;1.30;;;;;;;25.73;38.73;93107.44;5110028;28;20268;-81
2023/08/03 10:18:36;;;;;;;2.50;1.17;;;;;;;25.73;38.66;93106.66;5114006;28;20203;-81
2023/08/03 10:21:04;;;;;;;8.93;6.53;;;;;;;25.88;38.55;93092.81;5113656;28;20268;-81
2023/08/03 10:23:31;;;;;;;3.88;1.90;;;;;;;25.83;38.22;93092.25;5112983;28;20227;-81
2023/08/03 10:25:59;;;;;;;3.55;1.08;;;;;;;25.84;38.46;93091.16;5114062;28;20218;-82
2023/08/03 10:28:26;;;;;;;1.55;1.20;;;;;;;25.94;38.35;93096.75;5114467;28;20236;-82
2023/08/03 10:31:03;;;;;;;2.45;1.08;;;;;;;25.97;37.98;93066.31;5111667;28;20211;-81
2023/08/03 10:34:05;;;;;;;2.65;1.05;;;;;;;26.01;38.31;93096.94;5113925;28;20203;-81
2023/08/03 10:36:39;;;;;;;2.22;1.20;;;;;;;26.05;38.32;93104.94;5110169;28;20198;-82
2023/08/03 10:39:07;;;;;;;2.35;1.00;;;;;;;26.10;39.12;93158.25;5111490;28;20577;-81
2023/08/03 10:41:37;;;;;;;2.22;1.08;;;;;;;25.53;39.71;93152.31;5111957;28;20219;-82
2023/08/03 10:44:26;;;;;;;3.97;1.33;;;;;;;25.85;39.08;93162.00;5109007;28;20197;-81
2023/08/03 10:46:53;;;;;;;2.33;1.20;;;;;;;26.30;40.04;93221.78;5110659;28;20270;-80
2023/08/03 10:49:52;;;;;;;1.70;1.02;;;;;;;26.10;40.47;93242.66;5114541;28;20661;-81
2023/08/03 10:52:26;;;;;;;1.83;0.93;;;;;;;25.50;39.23;93164.28;5092800;28;20502;-81
2023/08/03 10:54:53;;;;;;;3.42;1.00;;;;;;;25.33;39.59;93188.97;5110891;28;20203;-81
2023/08/03 10:57:23;;;;;;;3.80;1.25;;;;;;;25.38;39.93;93209.06;5114759;28;20203;-82
2023/08/03 10:59:51;;;;;;;1.23;0.90;;;;;;;25.51;40.51;93254.66;5111768;28;20688;-80
2023/08/03 11:02:20;;;;;;;1.17;0.88;;;;;;;25.48;38.82;93148.81;5112315;28;20220;-81
2023/08/03 11:04:50;;;;;;;3.45;1.05;;;;;;;25.59;38.84;93143.13;5109591;28;20234;-80
2023/08/03 11:07:19;;;;;;;1.65;0.80;;;;;;;25.74;38.37;93129.28;5112411;28;20199;-81
2023/08/03 11:09:48;;;;;;;2.65;0.90;;;;;;;25.87;38.83;93122.13;5112035;28;20198;-81
2023/08/03 11:12:16;;;;;;;2.38;0.90;;;;;;;25.98;39.74;93197.81;5113960;28;20287;-81
2023/08/03 11:14:44;;;;;;;1.20;0.77;;;;;;;26.17;38.53;93129.41;5112016;28;20223;-80
2023/08/03 11:17:13;;;;;;;2.58;1.90;;;;;;;26.12;37.82;93062.97;5113180;28;20195;-82
2023/08/03 11:19:39;;;;;;;2.70;2.50;;;;;;;25.79;37.87;93057.88;5111722;28;20210;-81
2023/08/03 11:22:08;;;;;;;1.45;1.20;;;;;;;25.98;37.72;93052.03;5112581;28;20500;-80
2023/08/03 11:24:34;;;;;;;1.10;0.98;;;;;;;26.06;37.31;93051.88;5114852;28;20203;-82
2023/08/03 11:27:04;;;;;;;1.83;0.90;;;;;;;26.28;37.62;93082.25;5114509;28;20230;-81
2023/08/03 11:29:31;;;;;;;1.48;0.88;;;;;;;26.00;37.18;93018.16;5113140;28;20737;-81
2023/08/03 11:31:57;;;;;;;2.15;0.80;;;;;;;26.13;37.75;93067.13;5112427;28;20211;-81
2023/08/03 11:34:24;;;;;;;2.30;0.93;;;;;;;26.14;37.36;93040.44;5105198;28;20188;-81
2023/08/03 11:36:52;;;;;;;2.17;0.90;;;;;;;26.48;37.65;93083.19;5105229;28;20686;-80